ADDS METAR Data INFO
IDs: Format: Raw Decoded Include TAF

Data at: 0319 UTC 20 Jul 2018

KFLY 200255Z AUTO 11003KT 10SM CLR 23/01 A3024 RMK AO2 T02330011
KFLY 200235Z AUTO 14006KT 10SM CLR 25/01 A3023 RMK AO2 T02450007
KFLY 200215Z AUTO 12006KT 10SM CLR 26/01 A3023 RMK AO2 T02550007
KFLY 200155Z AUTO 00000KT 10SM CLR 28/M01 A3022 RMK AO2 T02781012
KFLY 200135Z AUTO 15004KT 10SM CLR 29/M01 A3023 RMK AO2 T02921013
KFLY 200115Z AUTO 13004KT 10SM CLR 30/M03 A3022 RMK AO2 T03021026
KFLY 200055Z AUTO 12004KT 10SM CLR 31/M03 A3022 RMK AO2 T03141034
KFLY 200035Z AUTO 09004KT 10SM CLR 32/M03 A3021 RMK AO2 T03191034
KFLY 200015Z AUTO 06005KT 10SM CLR 32/M03 A3021 RMK AO2 T03201032
KFLY 192355Z AUTO 13008KT 10SM CLR 31/M03 A3021 RMK AO2 T03131035 10339 20311
KFLY 192335Z AUTO 12007KT 10SM CLR 32/M03 A3022 RMK AO2 T03191035
KFLY 192315Z AUTO 06003G15KT 10SM CLR 33/M03 A3023 RMK AO2 T03281035
KFLY 192255Z AUTO 13008G15KT 110V170 10SM CLR 33/M03 A3023 RMK AO2 T03281033
KFLY 192235Z AUTO 16009KT 110V170 10SM CLR 33/M03 A3023 RMK AO2 T03331031
KFLY 192215Z AUTO 16008KT 10SM CLR 33/M04 A3023 RMK AO2 T03271036
KFLY 192155Z AUTO 14007KT 10SM CLR 34/M04 A3024 RMK AO2 T03351037
KFLY 192135Z AUTO 16008KT 10SM CLR 33/M03 A3024 RMK AO2 T03321035
KFLY 192115Z AUTO 11009KT 090V160 10SM CLR 33/M03 A3025 RMK AO2 T03331034
KFLY 192055Z AUTO 17005G09KT 10SM CLR 33/M04 A3025 RMK AO2 T03271039
KFLY 192035Z AUTO 12010G16KT 10SM CLR 34/M03 A3026 RMK AO2 T03381034
KFLY 192015Z AUTO 11011G23KT 070V280 10SM CLR 33/M04 A3025 RMK AO2 T03311037
KFLY 191955Z AUTO 04007KT 10SM CLR 33/M03 A3026 RMK AO2 T03331035
KFLY 191935Z AUTO 11009G17KT 10SM CLR 33/M04 A3027 RMK AO2 T03271044
KFLY 191915Z AUTO 04007KT 10SM CLR 32/M05 A3028 RMK AO2 T03221049
KFLY 191855Z AUTO 05009G17KT 10SM CLR 33/M04 A3028 RMK AO2 T03251041
KFLY 191835Z AUTO 04006G14KT 10SM CLR 32/M04 A3029 RMK AO2 T03221038
KFLY 191815Z AUTO 36004G14KT 10SM CLR 31/M04 A3030 RMK AO2 T03131041
KFLY 191755Z AUTO 04009G14KT 10SM CLR 31/M04 A3030 RMK AO2 T03141045 10316 20192
KFLY 191735Z AUTO 04007KT 10SM CLR 31/M04 A3030 RMK AO2 T03131042
KFLY 191715Z AUTO 35008KT 10SM CLR 30/M04 A3030 RMK AO2 T03031045
KFLY 191655Z AUTO 35008G16KT 10SM CLR 31/M04 A3030 RMK AO2 T03051041
KFLY 191635Z AUTO 35009G15KT 10SM CLR 31/M03 A3030 RMK AO2 T03051027
KFLY 191615Z AUTO 36014G18KT 10SM CLR 29/M03 A3030 RMK AO2 T02911032
KFLY 191555Z AUTO 35013G19KT 10SM CLR 28/M03 A3030 RMK AO2 T02801032
KFLY 191535Z AUTO 34011G19KT 10SM CLR 28/M04 A3029 RMK AO2 T02811036
KFLY 191515Z AUTO 34011G17KT 10SM CLR 27/01 A3030 RMK AO2 T02660014
KFLY 191455Z AUTO 34009G17KT 10SM CLR 26/04 A3030 RMK AO2 T02600039
KFLY 191435Z AUTO 34011G18KT 10SM CLR 25/05 A3029 RMK AO2 T02480050
KFLY 191415Z AUTO 34008G16KT 10SM CLR 23/05 A3028 RMK AO2 T02310053
KFLY 191355Z AUTO 33010G17KT 10SM CLR 22/06 A3028 RMK AO2 T02240055
KFLY 191335Z AUTO 34009G16KT 10SM CLR 22/05 A3028 RMK AO2 T02180053
KFLY 191315Z AUTO 34010G16KT 10SM CLR 21/05 A3027 RMK AO2 T02130050
KFLY 191255Z AUTO 34012G19KT 10SM CLR 21/05 A3027 RMK AO2 T02130046
KFLY 191235Z AUTO 34008G16KT 10SM CLR 21/04 A3026 RMK AO2 T02050043
KFLY 191215Z AUTO 35007KT 330V030 10SM CLR 20/05 A3026 RMK AO2 T01970045
KFLY 191155Z AUTO 35006KT 10SM CLR 19/05 A3026 RMK AO2 T01910051 10195 20161
KFLY 191135Z AUTO 33008KT 10SM CLR 19/05 A3025 RMK AO2 T01900051
KFLY 191115Z AUTO 33006KT 10SM CLR 19/05 A3025 RMK AO2 T01930047
KFLY 191055Z AUTO 33008KT 10SM CLR 19/05 A3025 RMK AO2 T01930051
KFLY 191035Z AUTO 33007KT 10SM CLR 19/06 A3025 RMK AO2 T01910063
KFLY 191015Z AUTO 33005KT 10SM CLR 19/08 A3025 RMK AO2 T01880078
KFLY 190955Z AUTO 33004KT 10SM CLR 19/09 A3025 RMK AO2 T01850085
KFLY 190935Z AUTO 32006KT 10SM CLR 16/09 A3025 RMK AO2 T01610089
KFLY 190915Z AUTO 29005KT 10SM CLR 16/09 A3025 RMK AO2 T01610088
KFLY 190855Z AUTO 28005KT 10SM CLR 17/09 A3025 RMK AO2 T01650088
KFLY 190835Z AUTO 29004KT 10SM CLR 18/09 A3025 RMK AO2 T01770086
KFLY 190815Z AUTO 29005KT 10SM CLR 17/09 A3025 RMK AO2 T01660088
KFLY 190755Z AUTO 29005KT 10SM CLR 18/09 A3025 RMK AO2 T01820087
KFLY 190735Z AUTO 26006KT 10SM CLR 19/09 A3026 RMK AO2 T01900085
KFLY 190715Z AUTO 25006KT 10SM CLR 19/09 A3026 RMK AO2 T01850087
KFLY 190655Z AUTO 27005KT 10SM CLR 18/09 A3027 RMK AO2 T01840086 403230125
KFLY 190635Z AUTO 25007KT 10SM CLR 19/09 A3027 RMK AO2 T01920087
KFLY 190615Z AUTO 24007KT 10SM CLR 19/09 A3028 RMK AO2 T01870090
KFLY 190555Z AUTO 25008KT 10SM CLR 18/09 A3028 RMK AO2 T01840091 10310 20184
KFLY 190535Z AUTO 25008KT 10SM CLR 19/09 A3028 RMK AO2 T01920089
KFLY 190515Z AUTO 24004KT 10SM CLR 20/08 A3028 RMK AO2 T01950084
KFLY 190455Z AUTO 00000KT 10SM CLR 21/08 A3028 RMK AO2 T02060080
KFLY 190435Z AUTO 00000KT 10SM CLR 20/08 A3028 RMK AO2 T02010077
KFLY 190415Z AUTO 00000KT 10SM CLR 21/07 A3029 RMK AO2 T02120067
KFLY 190355Z AUTO 00000KT 10SM CLR 21/06 A3029 RMK AO2 T02140060
KFLY 190335Z AUTO 00000KT 10SM CLR 22/05 A3028 RMK AO2 T02180050
KFLY 190315Z AUTO 13003KT 10SM CLR 22/05 A3028 RMK AO2 T02190048
KFLY 190255Z AUTO 14004KT 10SM SCT110 23/05 A3027 RMK AO2 T02290050
KFLY 190235Z AUTO 13004KT 10SM SCT100 24/05 A3027 RMK AO2 T02350045
KFLY 190215Z AUTO 12006KT 10SM CLR 24/04 A3026 RMK AO2 T02440040
KFLY 190155Z AUTO 12008KT 10SM CLR 26/04 A3026 RMK AO2 T02560038
KFLY 190135Z AUTO 10010KT 10SM CLR 28/03 A3025 RMK AO2 T02770034
KFLY 190115Z AUTO 08005KT 10SM SCT100 30/02 A3025 RMK AO2 T02960018
KFLY 190055Z AUTO 08004KT 10SM SCT110 30/01 A3025 RMK AO2 T03000013
KFLY 190035Z AUTO 08004KT 10SM CLR 31/01 A3024 RMK AO2 T03080010
KFLY 190015Z AUTO 18004KT 10SM CLR 30/01 A3024 RMK AO2 T03000010
KFLY 182355Z AUTO 13004KT 10SM CLR 31/01 A3025 RMK AO2 T03100011 10323 20280
KFLY 182335Z AUTO 11003KT 10SM CLR 30/01 A3025 RMK AO2 T03010014
KFLY 182315Z AUTO 10007KT 10SM SCT110 32/02 A3025 RMK AO2 T03180015
KFLY 182255Z AUTO 15007KT 10SM BKN110 32/02 A3025 RMK AO2 T03150015
KFLY 182235Z AUTO 15006KT 10SM BKN120 30/01 A3026 RMK AO2 T03010011
KFLY 182215Z AUTO 16010G18KT 10SM BKN120 30/02 A3026 RMK AO2 T03000017
KFLY 182155Z AUTO 16007KT 10SM SCT110 32/01 A3026 RMK AO2 T03230013
KFLY 182135Z AUTO 13005KT 10SM SCT110 30/01 A3027 RMK AO2 T02960008
KFLY 182115Z AUTO 00000KT 10SM SCT110 30/01 A3027 RMK AO2 T03020010
KFLY 182055Z AUTO 06008KT 10SM SCT110 30/01 A3028 RMK AO2 T03020010
KFLY 182035Z AUTO 04010G16KT 10SM SCT110 31/01 A3028 RMK AO2 T03070011
KFLY 182015Z AUTO 08008KT 10SM BKN110 31/02 A3029 RMK AO2 T03110016
KFLY 181955Z AUTO 06005KT 10SM OVC095 30/02 A3029 RMK AO2 T03000019
KFLY 181935Z AUTO 10003KT 10SM BKN095 BKN120 30/01 A3029 RMK AO2 T03040012
KFLY 181915Z AUTO 05011KT 10SM BKN095 29/02 A3029 RMK AO2 T02920019
KFLY 181855Z AUTO 02007KT 10SM OVC095 28/02 A3030 RMK AO2 T02840022
KFLY 181835Z AUTO 08004KT 10SM BKN095 29/02 A3030 RMK AO2 T02860022
KFLY 181815Z AUTO 07008G14KT 10SM CLR 30/03 A3030 RMK AO2 T03010026
KFLY 181755Z AUTO 05005G21KT 10SM CLR 29/03 A3031 RMK AO2 T02930029 10299 20125
KFLY 181735Z AUTO 01003G16KT 10SM CLR 29/03 A3031 RMK AO2 T02930028
KFLY 181715Z AUTO 30005KT 10SM CLR 29/02 A3032 RMK AO2 T02920015
KFLY 181655Z AUTO 34005G14KT 310V020 10SM CLR 29/02 A3032 RMK AO2 T02900021
KFLY 181635Z AUTO 36008KT 10SM CLR 28/03 A3032 RMK AO2 T02840025
KFLY 181615Z AUTO 34009G15KT 10SM CLR 28/03 A3031 RMK AO2 T02810025
KFLY 181555Z AUTO 32010G14KT 10SM CLR 28/04 A3032 RMK AO2 T02760044
KFLY 181535Z AUTO 33008KT 10SM CLR 27/06 A3031 RMK AO2 T02670057